Terminal Aerodrome Forecast
Issued by NWS

Home | Current Version | Previous Version | Text Only | Print | Product List | Glossary On
Versions: 1 2 3 4 5 6 7 8 9 10 11 12 13 14 15 16 17 18 19 20
000
FTUS43 KIND 221723
TAFLAF
TAF
KLAF 221723Z 2218/2318 25009KT P6SM SCT050 BKN250
     FM222100 26009KT P6SM VCTS FEW035CB SCT050 BKN070
     FM230200 29004KT P6SM VCTS SCT050CB BKN070
     FM230600 29005KT 5SM BR BKN025 BKN050
     FM230900 32004KT 3SM BR BKN020
     FM231330 31005KT P6SM BKN025
     FM231600 30006KT P6SM BKN040=

USA.gov is the U.S. government's official web portal to all federal, state and local government web resources and services.